Hovedside
METAR-TAF:

METAR-TAF

Lufthavner :

Sindal, Danmark

breddegrad: 57-30N, lengdegrad: 010-13E, høyde over havet: 28 m

Gjeldene værobservasjon

Denne rapporten ble laget for 1 time og 1 minutter siden, klokken 07:50 UTC
Vind 14 kt fra Vest med vindkast opp mot 24 kt
Temperatur 7°C
Luftfuktighet 76%
Trykk 1010 hPa
Sikt 10 km eller mer
Få skyer i en høyde av 800 ft

METAR: EKSN 010750Z 28014G24KT 9999 FEW008 07/03 Q1010

Tid: 10:51 (08:51 UTC)

Varsel

Denne rapporten ble laget for 1 time og 51 minutter siden, klokken 07:00 UTC
Varsel gyldig fra 01. klokken 07 UTC til 01. klokken 15 UTC
Vind 15 kt fra Vest
Sikt 10 km eller mer
Få skyer i en høyde av 1000 ft
Midlertidig
fra 01. klokken 10 UTC til 01. klokken 15 UTC
Vind 18 kt fra Vest med vindkast opp mot 30 kt

TAF: EKSN 010700Z 0107/0115 28015KT 9999 FEW010 TEMPO 0110/0115 27018G30KT

Værobservasjoner og værvarsel for over 4000 flyplasser (METAR- og TAF-rapporter).

Tilgjengelige stasjoner er representert av de røde og gule prikkene på kartet.

Hold musepekeren over prikken for å se navnet på stasjonen.

Klikk så for å se værobservasjoner og -varsler.

For å forandre kartet kan du klikke på den grønne knappen med svart kryss for å zoome inn, på den grønne knappen med strek for å zoome ut, eller på de grønne pilene for å se tilstøtende kart.


METAR-TAF: